LOT4AN LYPG-EPWA
Flight info
| Callsign | LOT4AN |
|---|---|
| Flight time | N/A |
| Altitude | 37000 |
| Route | NIK DCT PARAK/N0439F360 DCT DEMOP DCT KELEL/N0436F370 DCT ORTEB/N0438F380 DCT KONZI DCT LOGDA |
| Aircraft | B738/M-SDE2E3FGIJ1RWY/LB1 |
Departure
| Time | 2026-05-05 09:57 |
|---|---|
| Airport | Podgorica Airport / Podgorica Golubovci Airbase (LYPG) |
Arrival
| Time | N/A |
|---|---|
| Airport | Warsaw Chopin Airport (EPWA) |
| Time | Latitude | Longitude | Altitude | Speed | Heading |
|---|---|---|---|---|---|
| 2026-05-05 09:08 | 42.36694 | 19.24744 | 132 ft | 0 kts | 319° |
| 2026-05-05 09:47 | 42.36697 | 19.24743 | 105 ft | 1 kts | 343° |
| 2026-05-05 09:47 | 42.36701 | 19.24749 | 105 ft | 1 kts | 45° |
| 2026-05-05 09:48 | 42.36701 | 19.24760 | 105 ft | 2 kts | 92° |
| 2026-05-05 09:48 | 42.36693 | 19.24795 | 105 ft | 7 kts | 112° |
| 2026-05-05 09:48 | 42.36654 | 19.24839 | 105 ft | 7 kts | 141° |
| 2026-05-05 09:48 | 42.36636 | 19.24905 | 104 ft | 9 kts | 94° |
| 2026-05-05 09:49 | 42.36625 | 19.24993 | 109 ft | 10 kts | 120° |
| 2026-05-05 09:49 | 42.36559 | 19.25007 | 108 ft | 10 kts | 184° |
| 2026-05-05 09:50 | 42.35916 | 19.24941 | 105 ft | 16 kts | 184° |
| 2026-05-05 09:51 | 42.35807 | 19.24930 | 106 ft | 15 kts | 184° |
| 2026-05-05 09:51 | 42.35705 | 19.24919 | 105 ft | 14 kts | 184° |
| 2026-05-05 09:51 | 42.35606 | 19.24910 | 105 ft | 14 kts | 184° |
| 2026-05-05 09:51 | 42.35506 | 19.24900 | 105 ft | 16 kts | 184° |
| 2026-05-05 09:52 | 42.35383 | 19.24888 | 105 ft | 19 kts | 184° |
| 2026-05-05 09:52 | 42.35245 | 19.24873 | 103 ft | 20 kts | 184° |
| 2026-05-05 09:52 | 42.35109 | 19.24859 | 103 ft | 19 kts | 184° |
| 2026-05-05 09:52 | 42.35006 | 19.24848 | 104 ft | 12 kts | 184° |
| 2026-05-05 09:53 | 42.34928 | 19.24840 | 103 ft | 11 kts | 184° |
| 2026-05-05 09:53 | 42.34869 | 19.24839 | 103 ft | 7 kts | 163° |
| 2026-05-05 09:53 | 42.34849 | 19.24890 | 105 ft | 6 kts | 95° |
| 2026-05-05 09:53 | 42.34848 | 19.24917 | 106 ft | 0 kts | 94° |
| 2026-05-05 09:55 | 42.34847 | 19.24931 | 106 ft | 5 kts | 94° |
| 2026-05-05 09:55 | 42.34842 | 19.25014 | 108 ft | 10 kts | 95° |
| 2026-05-05 09:55 | 42.34884 | 19.25077 | 108 ft | 11 kts | 11° |
| 2026-05-05 09:55 | 42.35064 | 19.25098 | 108 ft | 56 kts | 4° |
| 2026-05-05 09:56 | 42.35703 | 19.25161 | 104 ft | 126 kts | 4° |
| 2026-05-05 09:56 | 42.36770 | 19.25272 | 216 ft | 171 kts | 6° |
| 2026-05-05 09:57 | 42.44167 | 19.26054 | 4223 ft | 213 kts | 4° |
| 2026-05-05 09:58 | 42.45647 | 19.26124 | 4921 ft | 212 kts | 352° |
| 2026-05-05 09:58 | 42.46997 | 19.25345 | 5397 ft | 217 kts | 313° |
| 2026-05-05 09:58 | 42.47943 | 19.23787 | 6140 ft | 211 kts | 305° |
| 2026-05-05 09:58 | 42.48816 | 19.22199 | 6812 ft | 212 kts | 305° |
| 2026-05-05 09:59 | 42.49698 | 19.20588 | 7331 ft | 218 kts | 307° |
| 2026-05-05 09:59 | 42.50651 | 19.18961 | 7927 ft | 221 kts | 307° |
| 2026-05-05 09:59 | 42.51617 | 19.17304 | 8495 ft | 226 kts | 308° |
| 2026-05-05 09:59 | 42.52601 | 19.15628 | 9069 ft | 228 kts | 308° |
| 2026-05-05 10:00 | 42.53595 | 19.13931 | 9675 ft | 230 kts | 307° |
| 2026-05-05 10:00 | 42.54608 | 19.12244 | 10238 ft | 233 kts | 316° |
| 2026-05-05 10:00 | 42.55961 | 19.10925 | 10539 ft | 248 kts | 329° |
| 2026-05-05 10:00 | 42.57522 | 19.09648 | 10729 ft | 270 kts | 328° |
| 2026-05-05 10:01 | 42.59191 | 19.08254 | 10967 ft | 292 kts | 328° |
| 2026-05-05 10:01 | 42.60913 | 19.06798 | 11594 ft | 298 kts | 327° |
| 2026-05-05 10:01 | 42.62674 | 19.05296 | 12382 ft | 300 kts | 327° |
| 2026-05-05 10:01 | 42.64470 | 19.03756 | 13192 ft | 303 kts | 327° |
| 2026-05-05 10:02 | 42.66236 | 19.02237 | 14001 ft | 306 kts | 327° |
| 2026-05-05 10:02 | 42.68044 | 19.00678 | 14746 ft | 308 kts | 327° |
| 2026-05-05 10:02 | 42.69881 | 18.99090 | 15529 ft | 311 kts | 326° |
| 2026-05-05 10:02 | 42.71710 | 18.97507 | 16353 ft | 312 kts | 326° |
| 2026-05-05 10:03 | 42.73547 | 18.95917 | 17107 ft | 315 kts | 326° |
| 2026-05-05 10:03 | 42.75409 | 18.94304 | 17851 ft | 319 kts | 326° |
| 2026-05-05 10:03 | 42.77452 | 18.93109 | 18563 ft | 326 kts | 347° |
| 2026-05-05 10:03 | 42.79757 | 18.93002 | 18903 ft | 345 kts | 7° |
| 2026-05-05 10:04 | 42.82177 | 18.93668 | 19061 ft | 365 kts | 11° |
| 2026-05-05 10:04 | 42.84714 | 18.94502 | 19231 ft | 384 kts | 12° |
| 2026-05-05 10:04 | 42.87330 | 18.95406 | 19711 ft | 390 kts | 12° |
| 2026-05-05 10:04 | 42.89957 | 18.96319 | 20440 ft | 390 kts | 12° |
| 2026-05-05 10:05 | 42.92592 | 18.97222 | 21084 ft | 392 kts | 12° |
| 2026-05-05 10:05 | 42.95252 | 18.98121 | 21639 ft | 396 kts | 11° |
| 2026-05-05 10:05 | 42.97904 | 18.99008 | 22200 ft | 399 kts | 11° |
| 2026-05-05 10:05 | 43.00645 | 18.99917 | 22817 ft | 401 kts | 11° |
| 2026-05-05 10:06 | 43.03365 | 19.00814 | 23377 ft | 404 kts | 11° |
| 2026-05-05 10:06 | 43.06110 | 19.01718 | 23904 ft | 407 kts | 11° |
| 2026-05-05 10:06 | 43.08870 | 19.02626 | 24361 ft | 409 kts | 11° |
| 2026-05-05 10:06 | 43.11651 | 19.03541 | 24818 ft | 412 kts | 11° |
| 2026-05-05 10:07 | 43.14444 | 19.04460 | 25287 ft | 414 kts | 11° |
| 2026-05-05 10:07 | 43.17248 | 19.05385 | 25746 ft | 416 kts | 11° |
| 2026-05-05 10:07 | 43.20066 | 19.06315 | 26193 ft | 418 kts | 11° |
| 2026-05-05 10:07 | 43.22906 | 19.07252 | 26606 ft | 420 kts | 11° |
| 2026-05-05 10:08 | 43.25752 | 19.08192 | 27050 ft | 423 kts | 11° |
| 2026-05-05 10:08 | 43.28621 | 19.09141 | 27450 ft | 425 kts | 11° |
| 2026-05-05 10:08 | 43.31510 | 19.10097 | 27825 ft | 428 kts | 11° |
| 2026-05-05 10:08 | 43.34409 | 19.11059 | 28257 ft | 430 kts | 11° |
| 2026-05-05 10:09 | 43.37326 | 19.12027 | 28685 ft | 431 kts | 10° |
| 2026-05-05 10:09 | 43.40248 | 19.12999 | 29078 ft | 433 kts | 11° |
| 2026-05-05 10:09 | 43.43180 | 19.13974 | 29461 ft | 435 kts | 10° |
| 2026-05-05 10:09 | 43.46134 | 19.14957 | 29780 ft | 438 kts | 10° |
| 2026-05-05 10:10 | 43.49101 | 19.15945 | 30112 ft | 440 kts | 10° |
| 2026-05-05 10:10 | 43.52089 | 19.16942 | 30407 ft | 442 kts | 10° |
| 2026-05-05 10:10 | 43.55085 | 19.17942 | 30722 ft | 443 kts | 10° |
| 2026-05-05 10:10 | 43.58079 | 19.18944 | 31121 ft | 442 kts | 10° |
| 2026-05-05 10:11 | 43.61061 | 19.19943 | 31526 ft | 441 kts | 10° |
| 2026-05-05 10:11 | 43.64041 | 19.20942 | 31824 ft | 442 kts | 10° |
| 2026-05-05 10:11 | 43.67033 | 19.21944 | 32124 ft | 442 kts | 10° |
| 2026-05-05 10:11 | 43.70021 | 19.22948 | 32484 ft | 442 kts | 10° |
| 2026-05-05 10:12 | 43.73007 | 19.23948 | 32866 ft | 441 kts | 10° |
| 2026-05-05 10:12 | 43.75993 | 19.24948 | 33219 ft | 441 kts | 10° |
| 2026-05-05 10:12 | 43.78973 | 19.25951 | 33555 ft | 441 kts | 10° |
| 2026-05-05 10:12 | 43.81961 | 19.26959 | 33874 ft | 442 kts | 10° |
| 2026-05-05 10:13 | 43.84943 | 19.27967 | 34212 ft | 440 kts | 10° |
| 2026-05-05 10:13 | 43.87915 | 19.28974 | 34529 ft | 440 kts | 10° |
| 2026-05-05 10:13 | 43.90887 | 19.29980 | 34829 ft | 439 kts | 10° |
| 2026-05-05 10:13 | 43.93851 | 19.30984 | 35136 ft | 438 kts | 10° |
| 2026-05-05 10:14 | 43.96811 | 19.31987 | 35411 ft | 438 kts | 10° |
| 2026-05-05 10:14 | 43.99766 | 19.32989 | 35690 ft | 437 kts | 10° |
| 2026-05-05 10:14 | 44.02721 | 19.33992 | 35985 ft | 436 kts | 10° |
| 2026-05-05 10:14 | 44.05667 | 19.34994 | 36276 ft | 435 kts | 10° |
| 2026-05-05 10:15 | 44.08608 | 19.35994 | 36547 ft | 435 kts | 10° |
| 2026-05-05 10:15 | 44.11541 | 19.36992 | 36808 ft | 434 kts | 10° |
| 2026-05-05 10:15 | 44.14478 | 19.37993 | 37057 ft | 434 kts | 10° |
| 2026-05-05 10:15 | 44.17425 | 19.38997 | 37022 ft | 438 kts | 10° |
| 2026-05-05 10:16 | 44.23340 | 19.41017 | 37033 ft | 437 kts | 10° |
| 2026-05-05 10:16 | 44.29199 | 19.43027 | 37037 ft | 431 kts | 10° |
| 2026-05-05 10:17 | 44.35013 | 19.45023 | 37034 ft | 428 kts | 10° |
| 2026-05-05 10:17 | 44.40787 | 19.47008 | 37029 ft | 427 kts | 10° |
| 2026-05-05 10:18 | 44.46544 | 19.48990 | 37031 ft | 426 kts | 10° |
| 2026-05-05 10:18 | 44.52307 | 19.50978 | 37039 ft | 427 kts | 10° |
| 2026-05-05 10:19 | 44.58097 | 19.52980 | 37032 ft | 430 kts | 10° |
| 2026-05-05 10:19 | 44.63913 | 19.54995 | 37034 ft | 432 kts | 10° |
| 2026-05-05 10:20 | 44.65847 | 19.55667 | 37035 ft | 433 kts | 10° |